sensor_id;sensor_type;location;lat;lon;timestamp;pressure;altitude;pressure_sealevel;temperature;humidity
28701;BME280;15877;52.344;16.790;2023-01-28T00:01:20;101591.83;;;4.28;59.54
28701;BME280;15877;52.344;16.790;2023-01-28T00:03:52;101595.48;;;4.31;59.43
28701;BME280;15877;52.344;16.790;2023-01-28T00:06:25;101593.30;;;4.34;59.88
28701;BME280;15877;52.344;16.790;2023-01-28T00:08:59;101588.33;;;4.39;59.74
28701;BME280;15877;52.344;16.790;2023-01-28T00:11:32;101586.52;;;4.39;59.67
28701;BME280;15877;52.344;16.790;2023-01-28T00:14:05;101588.73;;;4.42;59.32
28701;BME280;15877;52.344;16.790;2023-01-28T00:16:38;101577.71;;;4.30;59.50
28701;BME280;15877;52.344;16.790;2023-01-28T00:19:10;101570.16;;;4.32;59.47
28701;BME280;15877;52.344;16.790;2023-01-28T00:21:43;101597.34;;;4.49;59.04
28701;BME280;15877;52.344;16.790;2023-01-28T00:24:15;101597.38;;;4.42;58.64
28701;BME280;15877;52.344;16.790;2023-01-28T00:26:49;101597.85;;;4.35;58.47
28701;BME280;15877;52.344;16.790;2023-01-28T00:29:22;101598.06;;;4.40;59.42
28701;BME280;15877;52.344;16.790;2023-01-28T00:31:54;101598.02;;;4.46;59.12
28701;BME280;15877;52.344;16.790;2023-01-28T00:34:26;101597.21;;;4.37;58.85
28701;BME280;15877;52.344;16.790;2023-01-28T00:36:59;101596.15;;;4.40;58.90
28701;BME280;15877;52.344;16.790;2023-01-28T00:39:32;101600.35;;;4.42;58.59
28701;BME280;15877;52.344;16.790;2023-01-28T00:42:04;101600.61;;;4.26;58.65
28701;BME280;15877;52.344;16.790;2023-01-28T00:44:37;101598.90;;;4.34;59.13
28701;BME280;15877;52.344;16.790;2023-01-28T00:47:09;101599.00;;;4.40;58.83
28701;BME280;15877;52.344;16.790;2023-01-28T00:49:42;101603.45;;;4.44;58.71
28701;BME280;15877;52.344;16.790;2023-01-28T00:52:14;101595.77;;;4.38;58.00
28701;BME280;15877;52.344;16.790;2023-01-28T00:54:47;101598.51;;;4.31;57.93
28701;BME280;15877;52.344;16.790;2023-01-28T00:57:19;101597.23;;;4.36;58.57
28701;BME280;15877;52.344;16.790;2023-01-28T00:59:52;101604.77;;;4.41;58.72
28701;BME280;15877;52.344;16.790;2023-01-28T01:02:25;101605.45;;;4.44;58.71
28701;BME280;15877;52.344;16.790;2023-01-28T01:04:58;101604.31;;;4.46;58.92
28701;BME280;15877;52.344;16.790;2023-01-28T01:07:31;101601.83;;;4.38;58.44
28701;BME280;15877;52.344;16.790;2023-01-28T01:10:06;101600.70;;;4.35;58.36
28701;BME280;15877;52.344;16.790;2023-01-28T01:12:39;101602.17;;;4.37;58.12
28701;BME280;15877;52.344;16.790;2023-01-28T01:15:12;101597.83;;;4.41;58.39
28701;BME280;15877;52.344;16.790;2023-01-28T01:17:47;101600.10;;;4.44;57.94
28701;BME280;15877;52.344;16.790;2023-01-28T01:20:22;101601.86;;;4.40;57.59
28701;BME280;15877;52.344;16.790;2023-01-28T01:22:56;101602.38;;;4.39;57.63
28701;BME280;15877;52.344;16.790;2023-01-28T01:25:29;101600.27;;;4.35;57.57
28701;BME280;15877;52.344;16.790;2023-01-28T01:28:02;101599.58;;;4.38;58.14
28701;BME280;15877;52.344;16.790;2023-01-28T01:30:35;101599.75;;;4.33;58.57
28701;BME280;15877;52.344;16.790;2023-01-28T01:33:07;101601.30;;;4.32;58.65
28701;BME280;15877;52.344;16.790;2023-01-28T01:35:40;101600.70;;;4.36;58.58
28701;BME280;15877;52.344;16.790;2023-01-28T01:38:12;101597.59;;;4.42;58.51
28701;BME280;15877;52.344;16.790;2023-01-28T01:40:46;101599.77;;;4.44;58.30
28701;BME280;15877;52.344;16.790;2023-01-28T01:43:20;101600.73;;;4.42;57.78
28701;BME280;15877;52.344;16.790;2023-01-28T01:45:57;101601.17;;;4.34;58.33
28701;BME280;15877;52.344;16.790;2023-01-28T01:48:33;101595.55;;;4.30;58.11
28701;BME280;15877;52.344;16.790;2023-01-28T01:51:08;101594.50;;;4.31;57.96
28701;BME280;15877;52.344;16.790;2023-01-28T01:53:44;101577.49;;;4.09;58.14
28701;BME280;15877;52.344;16.790;2023-01-28T01:56:22;101584.96;;;4.19;58.27
28701;BME280;15877;52.344;16.790;2023-01-28T01:59:00;101584.89;;;4.33;57.56
28701;BME280;15877;52.344;16.790;2023-01-28T02:01:35;101583.90;;;4.12;57.45
28701;BME280;15877;52.344;16.790;2023-01-28T02:04:11;101588.50;;;4.08;57.71
28701;BME280;15877;52.344;16.790;2023-01-28T02:06:49;101591.29;;;4.10;57.70
28701;BME280;15877;52.344;16.790;2023-01-28T02:09:26;101587.34;;;4.09;57.69
28701;BME280;15877;52.344;16.790;2023-01-28T02:12:02;101594.04;;;4.05;58.22
28701;BME280;15877;52.344;16.790;2023-01-28T02:14:40;101593.09;;;4.15;58.54
28701;BME280;15877;52.344;16.790;2023-01-28T02:17:13;101574.05;;;4.08;58.06
28701;BME280;15877;52.344;16.790;2023-01-28T02:19:50;101593.70;;;4.15;57.96
28701;BME280;15877;52.344;16.790;2023-01-28T02:22:46;101593.23;;;4.17;58.15
28701;BME280;15877;52.344;16.790;2023-01-28T02:25:56;101592.55;;;4.18;57.82
28701;BME280;15877;52.344;16.790;2023-01-28T02:28:41;101593.78;;;4.17;57.75
28701;BME280;15877;52.344;16.790;2023-01-28T02:31:20;101588.49;;;4.04;58.08
28701;BME280;15877;52.344;16.790;2023-01-28T02:33:58;101591.91;;;4.08;57.85
28701;BME280;15877;52.344;16.790;2023-01-28T02:36:38;101588.23;;;4.07;57.80
28701;BME280;15877;52.344;16.790;2023-01-28T02:39:15;101584.66;;;4.08;57.92
28701;BME280;15877;52.344;16.790;2023-01-28T02:41:51;101584.58;;;4.01;57.89
28701;BME280;15877;52.344;16.790;2023-01-28T02:44:25;101591.91;;;4.04;57.63
28701;BME280;15877;52.344;16.790;2023-01-28T02:46:57;101593.86;;;3.92;57.59
28701;BME280;15877;52.344;16.790;2023-01-28T02:49:50;101599.21;;;3.89;57.81
28701;BME280;15877;52.344;16.790;2023-01-28T02:52:40;101599.95;;;3.72;58.02
28701;BME280;15877;52.344;16.790;2023-01-28T02:55:41;101596.30;;;3.94;57.96
28701;BME280;15877;52.344;16.790;2023-01-28T02:58:21;101601.83;;;3.92;57.99
28701;BME280;15877;52.344;16.790;2023-01-28T03:01:05;101597.42;;;3.87;57.83
28701;BME280;15877;52.344;16.790;2023-01-28T03:03:45;101605.29;;;3.83;57.91
28701;BME280;15877;52.344;16.790;2023-01-28T03:06:23;101605.77;;;3.78;57.96
28701;BME280;15877;52.344;16.790;2023-01-28T03:09:00;101604.20;;;3.91;58.02
28701;BME280;15877;52.344;16.790;2023-01-28T03:11:54;101606.69;;;3.94;57.90
28701;BME280;15877;52.344;16.790;2023-01-28T03:14:48;101610.67;;;3.82;57.39
28701;BME280;15877;52.344;16.790;2023-01-28T03:17:46;101608.05;;;3.76;57.62
28701;BME280;15877;52.344;16.790;2023-01-28T03:20:40;101610.73;;;3.77;57.93
28701;BME280;15877;52.344;16.790;2023-01-28T03:23:38;101607.98;;;3.76;57.93
28701;BME280;15877;52.344;16.790;2023-01-28T03:26:32;101608.18;;;3.84;57.73
28701;BME280;15877;52.344;16.790;2023-01-28T03:29:25;101609.79;;;3.87;57.79
28701;BME280;15877;52.344;16.790;2023-01-28T03:32:18;101607.35;;;3.80;58.01
28701;BME280;15877;52.344;16.790;2023-01-28T03:35:09;101611.22;;;3.78;57.78
28701;BME280;15877;52.344;16.790;2023-01-28T03:38:02;101615.40;;;3.55;58.42
28701;BME280;15877;52.344;16.790;2023-01-28T03:40:54;101619.05;;;3.59;58.48
28701;BME280;15877;52.344;16.790;2023-01-28T03:43:27;101612.04;;;3.56;58.38
28701;BME280;15877;52.344;16.790;2023-01-28T03:46:00;101610.10;;;3.57;58.17
28701;BME280;15877;52.344;16.790;2023-01-28T03:48:33;101613.73;;;3.50;58.18
28701;BME280;15877;52.344;16.790;2023-01-28T03:51:07;101603.80;;;3.30;58.64
28701;BME280;15877;52.344;16.790;2023-01-28T03:53:40;101614.13;;;3.49;58.42
28701;BME280;15877;52.344;16.790;2023-01-28T03:56:13;101614.30;;;3.55;58.06
28701;BME280;15877;52.344;16.790;2023-01-28T03:58:49;101617.02;;;3.64;57.74
28701;BME280;15877;52.344;16.790;2023-01-28T04:01:26;101620.87;;;3.62;57.67
28701;BME280;15877;52.344;16.790;2023-01-28T04:04:00;101621.95;;;3.39;58.00
28701;BME280;15877;52.344;16.790;2023-01-28T04:06:33;101628.27;;;3.39;57.44
28701;BME280;15877;52.344;16.790;2023-01-28T04:09:32;101625.30;;;3.53;57.49
28701;BME280;15877;52.344;16.790;2023-01-28T04:12:24;101612.46;;;3.45;56.96
28701;BME280;15877;52.344;16.790;2023-01-28T04:14:58;101628.91;;;3.55;57.03
28701;BME280;15877;52.344;16.790;2023-01-28T04:17:33;101616.98;;;3.57;56.39
28701;BME280;15877;52.344;16.790;2023-01-28T04:20:10;101634.00;;;3.63;55.93
28701;BME280;15877;52.344;16.790;2023-01-28T04:22:43;101637.63;;;3.63;55.94
28701;BME280;15877;52.344;16.790;2023-01-28T04:25:17;101643.96;;;3.62;56.02
28701;BME280;15877;52.344;16.790;2023-01-28T04:27:50;101643.45;;;3.63;55.72
28701;BME280;15877;52.344;16.790;2023-01-28T04:30:25;101650.03;;;3.59;55.51
28701;BME280;15877;52.344;16.790;2023-01-28T04:33:08;101630.88;;;3.44;55.16
28701;BME280;15877;52.344;16.790;2023-01-28T04:35:50;101645.19;;;3.47;54.74
28701;BME280;15877;52.344;16.790;2023-01-28T04:38:44;101646.47;;;3.39;54.50
28701;BME280;15877;52.344;16.790;2023-01-28T04:41:49;101651.29;;;3.34;54.87
28701;BME280;15877;52.344;16.790;2023-01-28T04:44:35;101648.73;;;3.38;54.83
28701;BME280;15877;52.344;16.790;2023-01-28T04:47:31;101652.36;;;3.37;54.89
28701;BME280;15877;52.344;16.790;2023-01-28T04:50:25;101651.10;;;3.38;55.04
28701;BME280;15877;52.344;16.790;2023-01-28T04:53:23;101647.18;;;3.39;54.24
28701;BME280;15877;52.344;16.790;2023-01-28T04:56:04;101645.09;;;3.26;54.34
28701;BME280;15877;52.344;16.790;2023-01-28T04:58:38;101647.08;;;3.24;54.21
28701;BME280;15877;52.344;16.790;2023-01-28T05:01:16;101651.11;;;3.33;53.77
28701;BME280;15877;52.344;16.790;2023-01-28T05:03:48;101648.86;;;3.34;53.74
28701;BME280;15877;52.344;16.790;2023-01-28T05:06:26;101642.33;;;3.27;54.20
28701;BME280;15877;52.344;16.790;2023-01-28T05:09:02;101640.02;;;3.33;54.04
28701;BME280;15877;52.344;16.790;2023-01-28T05:11:36;101641.04;;;3.36;53.76
28701;BME280;15877;52.344;16.790;2023-01-28T05:14:10;101644.60;;;3.46;54.17
28701;BME280;15877;52.344;16.790;2023-01-28T05:16:59;101639.48;;;3.37;53.87
28701;BME280;15877;52.344;16.790;2023-01-28T05:19:31;101642.48;;;3.27;54.20
28701;BME280;15877;52.344;16.790;2023-01-28T05:22:05;101650.70;;;3.40;54.11
28701;BME280;15877;52.344;16.790;2023-01-28T05:24:45;101650.55;;;3.28;54.28
28701;BME280;15877;52.344;16.790;2023-01-28T05:27:17;101655.72;;;3.36;54.35
28701;BME280;15877;52.344;16.790;2023-01-28T05:29:50;101654.84;;;3.37;54.19
28701;BME280;15877;52.344;16.790;2023-01-28T05:32:22;101658.56;;;3.44;54.06
28701;BME280;15877;52.344;16.790;2023-01-28T05:34:55;101654.66;;;3.43;53.70
28701;BME280;15877;52.344;16.790;2023-01-28T05:37:28;101654.83;;;3.15;54.04
28701;BME280;15877;52.344;16.790;2023-01-28T05:40:01;101656.09;;;3.23;54.20
28701;BME280;15877;52.344;16.790;2023-01-28T05:42:34;101657.80;;;3.29;54.02
28701;BME280;15877;52.344;16.790;2023-01-28T05:45:33;101664.95;;;3.36;53.25
28701;BME280;15877;52.344;16.790;2023-01-28T05:48:13;101669.07;;;3.28;53.75
28701;BME280;15877;52.344;16.790;2023-01-28T05:51:06;101673.11;;;3.39;53.23
28701;BME280;15877;52.344;16.790;2023-01-28T05:53:41;101677.35;;;3.24;53.60
28701;BME280;15877;52.344;16.790;2023-01-28T05:56:14;101673.69;;;3.20;53.30
28701;BME280;15877;52.344;16.790;2023-01-28T05:58:46;101683.46;;;3.21;53.30
28701;BME280;15877;52.344;16.790;2023-01-28T06:01:19;101684.57;;;3.20;53.23
28701;BME280;15877;52.344;16.790;2023-01-28T06:03:54;101665.30;;;3.10;53.54
28701;BME280;15877;52.344;16.790;2023-01-28T06:06:33;101684.16;;;3.22;53.33
28701;BME280;15877;52.344;16.790;2023-01-28T06:09:08;101690.95;;;3.17;53.37
28701;BME280;15877;52.344;16.790;2023-01-28T06:11:41;101691.73;;;3.17;53.61
28701;BME280;15877;52.344;16.790;2023-01-28T06:14:14;101692.83;;;3.15;53.25
28701;BME280;15877;52.344;16.790;2023-01-28T06:17:07;101697.88;;;3.17;53.62
28701;BME280;15877;52.344;16.790;2023-01-28T06:20:10;101699.27;;;3.21;53.38
28701;BME280;15877;52.344;16.790;2023-01-28T06:22:47;101700.45;;;3.01;54.03
28701;BME280;15877;52.344;16.790;2023-01-28T06:25:22;101701.67;;;3.08;53.92
28701;BME280;15877;52.344;16.790;2023-01-28T06:27:55;101703.67;;;3.04;54.12
28701;BME280;15877;52.344;16.790;2023-01-28T06:30:28;101704.41;;;2.97;54.24
28701;BME280;15877;52.344;16.790;2023-01-28T06:33:00;101704.89;;;3.00;54.15
28701;BME280;15877;52.344;16.790;2023-01-28T06:35:34;101711.96;;;3.11;54.33
28701;BME280;15877;52.344;16.790;2023-01-28T06:38:06;101707.06;;;3.15;54.23
28701;BME280;15877;52.344;16.790;2023-01-28T06:40:39;101708.21;;;3.23;54.51
28701;BME280;15877;52.344;16.790;2023-01-28T06:43:12;101683.59;;;3.09;54.58
28701;BME280;15877;52.344;16.790;2023-01-28T06:45:48;101709.05;;;3.38;54.45
28701;BME280;15877;52.344;16.790;2023-01-28T06:48:21;101712.04;;;3.42;54.52
28701;BME280;15877;52.344;16.790;2023-01-28T06:50:53;101711.48;;;3.42;54.07
28701;BME280;15877;52.344;16.790;2023-01-28T06:53:26;101714.10;;;3.46;53.30
28701;BME280;15877;52.344;16.790;2023-01-28T06:55:58;101710.96;;;3.46;53.62
28701;BME280;15877;52.344;16.790;2023-01-28T06:58:31;101715.41;;;3.40;53.83
28701;BME280;15877;52.344;16.790;2023-01-28T07:01:04;101713.25;;;3.43;53.51
28701;BME280;15877;52.344;16.790;2023-01-28T07:03:36;101724.38;;;3.44;53.14
28701;BME280;15877;52.344;16.790;2023-01-28T07:06:09;101716.44;;;3.55;53.09
28701;BME280;15877;52.344;16.790;2023-01-28T07:08:41;101723.70;;;3.41;53.30
28701;BME280;15877;52.344;16.790;2023-01-28T07:11:14;101722.08;;;3.45;53.61
28701;BME280;15877;52.344;16.790;2023-01-28T07:13:47;101721.02;;;3.49;53.72
28701;BME280;15877;52.344;16.790;2023-01-28T07:16:19;101726.66;;;3.40;53.40
28701;BME280;15877;52.344;16.790;2023-01-28T07:18:52;101726.16;;;3.48;53.10
28701;BME280;15877;52.344;16.790;2023-01-28T07:21:24;101721.63;;;3.53;53.32
28701;BME280;15877;52.344;16.790;2023-01-28T07:23:57;101725.48;;;3.52;53.84
28701;BME280;15877;52.344;16.790;2023-01-28T07:26:29;101720.47;;;3.54;54.17
28701;BME280;15877;52.344;16.790;2023-01-28T07:29:02;101722.42;;;3.64;53.88
28701;BME280;15877;52.344;16.790;2023-01-28T07:31:35;101722.17;;;3.68;53.74
28701;BME280;15877;52.344;16.790;2023-01-28T07:34:08;101726.46;;;3.68;53.53
28701;BME280;15877;52.344;16.790;2023-01-28T07:36:41;101726.09;;;3.66;54.15
28701;BME280;15877;52.344;16.790;2023-01-28T07:39:13;101724.45;;;3.72;53.48
28701;BME280;15877;52.344;16.790;2023-01-28T07:41:46;101723.76;;;3.76;53.70
28701;BME280;15877;52.344;16.790;2023-01-28T07:44:34;101722.42;;;3.78;53.15
28701;BME280;15877;52.344;16.790;2023-01-28T07:47:08;101726.81;;;3.80;53.67
28701;BME280;15877;52.344;16.790;2023-01-28T07:49:42;101727.11;;;3.84;53.09
28701;BME280;15877;52.344;16.790;2023-01-28T07:52:14;101723.83;;;3.88;53.30
28701;BME280;15877;52.344;16.790;2023-01-28T07:54:47;101705.83;;;3.85;53.54
28701;BME280;15877;52.344;16.790;2023-01-28T07:57:19;101722.46;;;3.93;53.48
28701;BME280;15877;52.344;16.790;2023-01-28T07:59:52;101723.88;;;4.00;53.32
28701;BME280;15877;52.344;16.790;2023-01-28T08:02:25;101724.27;;;3.94;52.95
28701;BME280;15877;52.344;16.790;2023-01-28T08:04:59;101720.08;;;4.01;53.00
28701;BME280;15877;52.344;16.790;2023-01-28T08:07:32;101720.23;;;4.07;53.24
28701;BME280;15877;52.344;16.790;2023-01-28T08:10:05;101721.81;;;4.13;53.49
28701;BME280;15877;52.344;16.790;2023-01-28T08:12:38;101725.45;;;4.14;53.53
28701;BME280;15877;52.344;16.790;2023-01-28T08:15:12;101724.63;;;4.19;52.21
28701;BME280;15877;52.344;16.790;2023-01-28T08:17:44;101721.02;;;4.22;51.43
28701;BME280;15877;52.344;16.790;2023-01-28T08:20:19;101726.56;;;4.18;51.68
28701;BME280;15877;52.344;16.790;2023-01-28T08:23:02;101727.69;;;4.16;52.13
28701;BME280;15877;52.344;16.790;2023-01-28T08:25:38;101725.25;;;4.17;51.91
28701;BME280;15877;52.344;16.790;2023-01-28T08:28:11;101719.54;;;4.17;51.57
28701;BME280;15877;52.344;16.790;2023-01-28T08:30:44;101718.35;;;4.20;51.90
28701;BME280;15877;52.344;16.790;2023-01-28T08:33:19;101719.70;;;4.22;51.59
28701;BME280;15877;52.344;16.790;2023-01-28T08:35:51;101718.77;;;4.24;51.48
28701;BME280;15877;52.344;16.790;2023-01-28T08:38:24;101721.04;;;4.26;51.10
28701;BME280;15877;52.344;16.790;2023-01-28T08:40:57;101730.38;;;4.33;51.31
28701;BME280;15877;52.344;16.790;2023-01-28T08:43:32;101722.26;;;4.36;50.83
28701;BME280;15877;52.344;16.790;2023-01-28T08:46:07;101721.79;;;4.29;52.05
28701;BME280;15877;52.344;16.790;2023-01-28T08:48:40;101726.52;;;4.34;51.86
28701;BME280;15877;52.344;16.790;2023-01-28T08:51:13;101728.05;;;4.35;51.31
28701;BME280;15877;52.344;16.790;2023-01-28T08:53:45;101727.17;;;4.35;51.32
28701;BME280;15877;52.344;16.790;2023-01-28T08:56:18;101733.71;;;4.35;51.20
28701;BME280;15877;52.344;16.790;2023-01-28T08:58:51;101737.59;;;4.42;51.07
28701;BME280;15877;52.344;16.790;2023-01-28T09:01:27;101738.02;;;4.43;50.91
28701;BME280;15877;52.344;16.790;2023-01-28T09:03:59;101741.27;;;4.44;50.45
28701;BME280;15877;52.344;16.790;2023-01-28T09:06:32;101744.44;;;4.39;50.69
28701;BME280;15877;52.344;16.790;2023-01-28T09:09:05;101743.80;;;4.44;50.99
28701;BME280;15877;52.344;16.790;2023-01-28T09:11:37;101745.05;;;4.40;51.34
28701;BME280;15877;52.344;16.790;2023-01-28T09:14:10;101746.16;;;4.34;50.71
28701;BME280;15877;52.344;16.790;2023-01-28T09:16:43;101743.59;;;4.37;51.34
28701;BME280;15877;52.344;16.790;2023-01-28T09:19:15;101745.32;;;4.41;50.91
28701;BME280;15877;52.344;16.790;2023-01-28T09:21:48;101750.55;;;4.46;50.61
28701;BME280;15877;52.344;16.790;2023-01-28T09:24:21;101735.23;;;4.37;50.52
28701;BME280;15877;52.344;16.790;2023-01-28T09:26:53;101748.02;;;4.46;50.94
28701;BME280;15877;52.344;16.790;2023-01-28T09:29:26;101750.83;;;4.50;50.72
28701;BME280;15877;52.344;16.790;2023-01-28T09:31:58;101754.37;;;4.48;50.81
28701;BME280;15877;52.344;16.790;2023-01-28T09:34:31;101732.70;;;4.33;51.44
28701;BME280;15877;52.344;16.790;2023-01-28T09:37:03;101749.21;;;4.52;50.96
28701;BME280;15877;52.344;16.790;2023-01-28T09:39:37;101750.18;;;4.54;51.17
28701;BME280;15877;52.344;16.790;2023-01-28T09:42:26;101745.55;;;4.58;51.55
28701;BME280;15877;52.344;16.790;2023-01-28T09:45:11;101733.75;;;4.56;51.60
28701;BME280;15877;52.344;16.790;2023-01-28T09:47:49;101742.54;;;4.63;51.19
28701;BME280;15877;52.344;16.790;2023-01-28T09:50:26;101743.63;;;4.59;50.85
28701;BME280;15877;52.344;16.790;2023-01-28T09:53:05;101745.14;;;4.57;51.50
28701;BME280;15877;52.344;16.790;2023-01-28T09:55:42;101744.33;;;4.60;50.46
28701;BME280;15877;52.344;16.790;2023-01-28T09:58:16;101737.17;;;4.56;50.29
28701;BME280;15877;52.344;16.790;2023-01-28T10:00:54;101736.30;;;4.50;51.30
28701;BME280;15877;52.344;16.790;2023-01-28T10:03:49;101738.07;;;4.55;50.85
28701;BME280;15877;52.344;16.790;2023-01-28T10:06:27;101720.39;;;4.36;51.00
28701;BME280;15877;52.344;16.790;2023-01-28T10:09:23;101741.52;;;4.45;51.26
28701;BME280;15877;52.344;16.790;2023-01-28T10:12:20;101741.94;;;4.52;51.48
28701;BME280;15877;52.344;16.790;2023-01-28T10:15:12;101746.52;;;4.55;51.71
28701;BME280;15877;52.344;16.790;2023-01-28T10:17:53;101744.60;;;4.60;51.58
28701;BME280;15877;52.344;16.790;2023-01-28T10:20:50;101746.91;;;4.61;51.40
28701;BME280;15877;52.344;16.790;2023-01-28T10:23:27;101748.45;;;4.61;50.86
28701;BME280;15877;52.344;16.790;2023-01-28T10:26:08;101747.05;;;4.52;50.02
28701;BME280;15877;52.344;16.790;2023-01-28T10:28:45;101751.10;;;4.34;49.86
28701;BME280;15877;52.344;16.790;2023-01-28T10:31:22;101750.64;;;4.20;50.17
28701;BME280;15877;52.344;16.790;2023-01-28T10:33:55;101752.02;;;4.14;50.34
28701;BME280;15877;52.344;16.790;2023-01-28T10:36:29;101757.14;;;4.13;51.08
28701;BME280;15877;52.344;16.790;2023-01-28T10:39:01;101757.33;;;4.16;50.87
28701;BME280;15877;52.344;16.790;2023-01-28T10:41:34;101755.94;;;4.25;51.21
28701;BME280;15877;52.344;16.790;2023-01-28T10:44:24;101759.77;;;4.32;51.07
28701;BME280;15877;52.344;16.790;2023-01-28T10:47:01;101759.79;;;4.35;50.59
28701;BME280;15877;52.344;16.790;2023-01-28T10:49:40;101757.51;;;4.42;51.02
28701;BME280;15877;52.344;16.790;2023-01-28T10:52:15;101756.61;;;4.44;50.97
28701;BME280;15877;52.344;16.790;2023-01-28T10:54:59;101754.84;;;4.45;51.16
28701;BME280;15877;52.344;16.790;2023-01-28T10:57:33;101746.17;;;4.48;51.57
28701;BME280;15877;52.344;16.790;2023-01-28T11:00:24;101752.77;;;4.53;51.58
28701;BME280;15877;52.344;16.790;2023-01-28T11:02:57;101741.56;;;4.36;51.71
28701;BME280;15877;52.344;16.790;2023-01-28T11:05:31;101751.34;;;4.44;52.17
28701;BME280;15877;52.344;16.790;2023-01-28T11:08:13;101751.65;;;4.45;52.22
28701;BME280;15877;52.344;16.790;2023-01-28T11:10:47;101758.75;;;4.27;51.92
28701;BME280;15877;52.344;16.790;2023-01-28T11:13:22;101755.92;;;4.37;51.88
28701;BME280;15877;52.344;16.790;2023-01-28T11:16:02;101760.23;;;4.50;51.63
28701;BME280;15877;52.344;16.790;2023-01-28T11:18:39;101762.29;;;4.54;51.03
28701;BME280;15877;52.344;16.790;2023-01-28T11:21:20;101758.92;;;4.44;51.21
28701;BME280;15877;52.344;16.790;2023-01-28T11:23:55;101735.54;;;4.29;51.50
28701;BME280;15877;52.344;16.790;2023-01-28T11:26:31;101753.83;;;4.20;51.93
28701;BME280;15877;52.344;16.790;2023-01-28T11:29:05;101756.65;;;4.19;51.55
28701;BME280;15877;52.344;16.790;2023-01-28T11:31:42;101750.96;;;4.27;51.45
28701;BME280;15877;52.344;16.790;2023-01-28T11:34:17;101741.69;;;4.34;51.98
28701;BME280;15877;52.344;16.790;2023-01-28T11:36:54;101745.56;;;4.33;51.77
28701;BME280;15877;52.344;16.790;2023-01-28T11:39:27;101746.34;;;4.33;51.17
28701;BME280;15877;52.344;16.790;2023-01-28T11:42:12;101745.10;;;4.39;51.51
28701;BME280;15877;52.344;16.790;2023-01-28T11:44:47;101738.77;;;4.46;51.70
28701;BME280;15877;52.344;16.790;2023-01-28T11:47:40;101737.27;;;4.45;51.89
28701;BME280;15877;52.344;16.790;2023-01-28T11:50:35;101748.02;;;4.46;51.94
28701;BME280;15877;52.344;16.790;2023-01-28T11:53:20;101745.00;;;4.45;51.34
28701;BME280;15877;52.344;16.790;2023-01-28T11:56:08;101742.23;;;4.45;50.94
28701;BME280;15877;52.344;16.790;2023-01-28T11:58:54;101742.43;;;4.48;50.93
28701;BME280;15877;52.344;16.790;2023-01-28T12:01:37;101740.87;;;4.55;50.97
28701;BME280;15877;52.344;16.790;2023-01-28T12:04:19;101734.39;;;4.53;50.96
28701;BME280;15877;52.344;16.790;2023-01-28T12:07:03;101732.96;;;4.58;50.21
28701;BME280;15877;52.344;16.790;2023-01-28T12:09:51;101733.00;;;4.59;50.80
28701;BME280;15877;52.344;16.790;2023-01-28T12:12:46;101725.25;;;4.63;51.43
28701;BME280;15877;52.344;16.790;2023-01-28T12:15:45;101731.09;;;4.68;50.66
28701;BME280;15877;52.344;16.790;2023-01-28T12:18:34;101726.06;;;4.69;50.13
28701;BME280;15877;52.344;16.790;2023-01-28T12:21:19;101721.73;;;4.71;50.07
28701;BME280;15877;52.344;16.790;2023-01-28T12:24:05;101710.02;;;4.75;50.04
28701;BME280;15877;52.344;16.790;2023-01-28T12:26:47;101706.59;;;4.76;50.42
28701;BME280;15877;52.344;16.790;2023-01-28T12:29:28;101699.54;;;4.77;50.32
28701;BME280;15877;52.344;16.790;2023-01-28T12:32:33;101704.66;;;4.76;50.32
28701;BME280;15877;52.344;16.790;2023-01-28T12:35:21;101706.86;;;4.81;50.89
28701;BME280;15877;52.344;16.790;2023-01-28T12:38:02;101704.25;;;4.82;50.79
28701;BME280;15877;52.344;16.790;2023-01-28T12:40:46;101700.34;;;4.80;50.64
28701;BME280;15877;52.344;16.790;2023-01-28T12:43:23;101699.70;;;4.82;50.91
28701;BME280;15877;52.344;16.790;2023-01-28T12:46:01;101697.96;;;4.75;51.20
28701;BME280;15877;52.344;16.790;2023-01-28T12:48:41;101697.35;;;4.80;51.27
28701;BME280;15877;52.344;16.790;2023-01-28T12:51:17;101700.65;;;4.80;51.09
28701;BME280;15877;52.344;16.790;2023-01-28T12:53:54;101704.45;;;4.75;51.20
28701;BME280;15877;52.344;16.790;2023-01-28T12:56:32;101709.79;;;4.80;50.91
28701;BME280;15877;52.344;16.790;2023-01-28T12:59:11;101712.19;;;4.81;50.74
28701;BME280;15877;52.344;16.790;2023-01-28T13:01:48;101703.95;;;4.76;50.37
28701;BME280;15877;52.344;16.790;2023-01-28T13:04:30;101708.01;;;4.73;50.41
28701;BME280;15877;52.344;16.790;2023-01-28T13:07:08;101709.23;;;4.68;50.39
28701;BME280;15877;52.344;16.790;2023-01-28T13:09:50;101713.00;;;4.70;50.11
28701;BME280;15877;52.344;16.790;2023-01-28T13:12:25;101715.39;;;4.73;50.17
28701;BME280;15877;52.344;16.790;2023-01-28T13:14:58;101719.20;;;4.71;50.31
28701;BME280;15877;52.344;16.790;2023-01-28T13:17:32;101721.99;;;4.68;50.13
28701;BME280;15877;52.344;16.790;2023-01-28T13:20:15;101718.65;;;4.58;50.89
28701;BME280;15877;52.344;16.790;2023-01-28T13:22:47;101723.53;;;4.69;51.01
28701;BME280;15877;52.344;16.790;2023-01-28T13:25:34;101727.08;;;4.76;50.12
28701;BME280;15877;52.344;16.790;2023-01-28T13:28:28;101723.46;;;4.60;49.99
28701;BME280;15877;52.344;16.790;2023-01-28T13:31:05;101721.73;;;4.58;50.36
28701;BME280;15877;52.344;16.790;2023-01-28T13:33:40;101723.44;;;4.53;50.27
28701;BME280;15877;52.344;16.790;2023-01-28T13:36:24;101706.57;;;4.36;50.46
28701;BME280;15877;52.344;16.790;2023-01-28T13:39:03;101725.35;;;4.50;50.84
28701;BME280;15877;52.344;16.790;2023-01-28T13:41:40;101713.19;;;4.36;50.20
28701;BME280;15877;52.344;16.790;2023-01-28T13:44:25;101734.80;;;4.41;49.77
28701;BME280;15877;52.344;16.790;2023-01-28T13:47:11;101733.73;;;4.49;49.27